sensor_id;sensor_type;location;lat;lon;timestamp;P1;durP1;ratioP1;P2;durP2;ratioP2
40433;SDS011;26146;51.114;5.654;2022-07-29T00:01:29;9.70;;;1.80;;
40433;SDS011;26146;51.114;5.654;2022-07-29T00:05:30;7.47;;;1.60;;
40433;SDS011;26146;51.114;5.654;2022-07-29T00:09:31;5.50;;;1.30;;
40433;SDS011;26146;51.114;5.654;2022-07-29T00:13:32;6.47;;;1.65;;
40433;SDS011;26146;51.114;5.654;2022-07-29T00:17:33;6.95;;;1.20;;
40433;SDS011;26146;51.114;5.654;2022-07-29T00:21:34;5.82;;;1.40;;
40433;SDS011;26146;51.114;5.654;2022-07-29T00:25:35;9.45;;;2.00;;
40433;SDS011;26146;51.114;5.654;2022-07-29T00:29:36;15.18;;;2.40;;
40433;SDS011;26146;51.114;5.654;2022-07-29T00:33:37;7.57;;;2.30;;
40433;SDS011;26146;51.114;5.654;2022-07-29T00:37:38;9.27;;;2.17;;
40433;SDS011;26146;51.114;5.654;2022-07-29T00:41:39;8.85;;;2.10;;
40433;SDS011;26146;51.114;5.654;2022-07-29T00:45:41;8.70;;;2.63;;
40433;SDS011;26146;51.114;5.654;2022-07-29T00:49:42;7.63;;;2.30;;
40433;SDS011;26146;51.114;5.654;2022-07-29T00:53:43;9.80;;;2.38;;
40433;SDS011;26146;51.114;5.654;2022-07-29T00:57:45;5.88;;;2.10;;
40433;SDS011;26146;51.114;5.654;2022-07-29T01:01:46;7.90;;;2.20;;
40433;SDS011;26146;51.114;5.654;2022-07-29T01:05:47;8.50;;;2.30;;
40433;SDS011;26146;51.114;5.654;2022-07-29T01:09:48;10.75;;;2.65;;
40433;SDS011;26146;51.114;5.654;2022-07-29T01:13:52;8.05;;;2.22;;
40433;SDS011;26146;51.114;5.654;2022-07-29T01:17:58;7.35;;;2.10;;
40433;SDS011;26146;51.114;5.654;2022-07-29T01:22:10;7.82;;;2.17;;
40433;SDS011;26146;51.114;5.654;2022-07-29T01:26:47;7.93;;;2.55;;
40433;SDS011;26146;51.114;5.654;2022-07-29T01:30:54;11.27;;;2.40;;
40433;SDS011;26146;51.114;5.654;2022-07-29T01:35:04;8.80;;;2.35;;
40433;SDS011;26146;51.114;5.654;2022-07-29T01:39:25;7.65;;;2.45;;
40433;SDS011;26146;51.114;5.654;2022-07-29T01:43:41;6.40;;;2.20;;
40433;SDS011;26146;51.114;5.654;2022-07-29T01:47:53;7.82;;;2.30;;
40433;SDS011;26146;51.114;5.654;2022-07-29T01:52:05;7.20;;;2.30;;
40433;SDS011;26146;51.114;5.654;2022-07-29T01:56:12;6.28;;;2.20;;
40433;SDS011;26146;51.114;5.654;2022-07-29T02:00:14;8.07;;;2.50;;
40433;SDS011;26146;51.114;5.654;2022-07-29T02:04:16;8.23;;;2.50;;
40433;SDS011;26146;51.114;5.654;2022-07-29T02:08:19;7.85;;;2.40;;
40433;SDS011;26146;51.114;5.654;2022-07-29T02:12:22;7.38;;;2.60;;
40433;SDS011;26146;51.114;5.654;2022-07-29T02:16:25;6.72;;;2.40;;
40433;SDS011;26146;51.114;5.654;2022-07-29T02:20:28;7.63;;;2.83;;
40433;SDS011;26146;51.114;5.654;2022-07-29T02:24:30;7.35;;;2.70;;
40433;SDS011;26146;51.114;5.654;2022-07-29T02:28:32;9.13;;;2.55;;
40433;SDS011;26146;51.114;5.654;2022-07-29T02:32:34;7.47;;;2.60;;
40433;SDS011;26146;51.114;5.654;2022-07-29T02:36:37;7.57;;;2.60;;
40433;SDS011;26146;51.114;5.654;2022-07-29T02:40:39;11.32;;;2.75;;
40433;SDS011;26146;51.114;5.654;2022-07-29T02:44:43;8.05;;;2.50;;
40433;SDS011;26146;51.114;5.654;2022-07-29T02:49:07;8.52;;;2.53;;
40433;SDS011;26146;51.114;5.654;2022-07-29T02:53:17;7.65;;;2.38;;
40433;SDS011;26146;51.114;5.654;2022-07-29T02:57:31;7.80;;;2.63;;
40433;SDS011;26146;51.114;5.654;2022-07-29T03:01:35;9.05;;;2.58;;
40433;SDS011;26146;51.114;5.654;2022-07-29T03:05:40;7.07;;;2.65;;
40433;SDS011;26146;51.114;5.654;2022-07-29T03:09:44;7.18;;;2.80;;
40433;SDS011;26146;51.114;5.654;2022-07-29T03:13:48;7.15;;;2.90;;
40433;SDS011;26146;51.114;5.654;2022-07-29T03:17:50;9.00;;;2.90;;
40433;SDS011;26146;51.114;5.654;2022-07-29T03:21:54;9.13;;;3.13;;
40433;SDS011;26146;51.114;5.654;2022-07-29T03:25:57;7.88;;;2.97;;
40433;SDS011;26146;51.114;5.654;2022-07-29T03:29:58;9.07;;;3.10;;
40433;SDS011;26146;51.114;5.654;2022-07-29T03:34:01;8.65;;;3.20;;
40433;SDS011;26146;51.114;5.654;2022-07-29T03:38:02;8.10;;;3.30;;
40433;SDS011;26146;51.114;5.654;2022-07-29T03:42:03;9.50;;;3.10;;
40433;SDS011;26146;51.114;5.654;2022-07-29T03:46:07;9.27;;;3.13;;
40433;SDS011;26146;51.114;5.654;2022-07-29T03:50:11;8.20;;;3.15;;
40433;SDS011;26146;51.114;5.654;2022-07-29T03:54:14;8.85;;;3.45;;
40433;SDS011;26146;51.114;5.654;2022-07-29T03:58:15;10.35;;;3.20;;
40433;SDS011;26146;51.114;5.654;2022-07-29T04:02:18;9.77;;;4.00;;
40433;SDS011;26146;51.114;5.654;2022-07-29T04:06:20;7.97;;;4.05;;
40433;SDS011;26146;51.114;5.654;2022-07-29T04:10:21;13.07;;;4.20;;
40433;SDS011;26146;51.114;5.654;2022-07-29T04:14:23;7.72;;;3.63;;
40433;SDS011;26146;51.114;5.654;2022-07-29T04:18:24;12.05;;;4.32;;
40433;SDS011;26146;51.114;5.654;2022-07-29T04:22:25;10.98;;;4.10;;
40433;SDS011;26146;51.114;5.654;2022-07-29T04:26:26;12.52;;;4.38;;
40433;SDS011;26146;51.114;5.654;2022-07-29T04:30:27;12.25;;;5.20;;
40433;SDS011;26146;51.114;5.654;2022-07-29T04:34:29;10.10;;;4.80;;
40433;SDS011;26146;51.114;5.654;2022-07-29T04:38:30;12.85;;;5.00;;
40433;SDS011;26146;51.114;5.654;2022-07-29T04:42:31;10.65;;;5.05;;
40433;SDS011;26146;51.114;5.654;2022-07-29T04:46:31;10.88;;;5.10;;
40433;SDS011;26146;51.114;5.654;2022-07-29T04:50:32;12.57;;;5.60;;
40433;SDS011;26146;51.114;5.654;2022-07-29T04:54:34;13.57;;;5.60;;
40433;SDS011;26146;51.114;5.654;2022-07-29T04:58:35;9.90;;;5.13;;
40433;SDS011;26146;51.114;5.654;2022-07-29T05:02:36;14.30;;;5.97;;
40433;SDS011;26146;51.114;5.654;2022-07-29T05:06:37;11.95;;;5.72;;
40433;SDS011;26146;51.114;5.654;2022-07-29T05:10:38;13.02;;;6.03;;
40433;SDS011;26146;51.114;5.654;2022-07-29T05:14:41;10.73;;;5.55;;
40433;SDS011;26146;51.114;5.654;2022-07-29T05:18:42;11.77;;;5.45;;
40433;SDS011;26146;51.114;5.654;2022-07-29T05:22:42;11.63;;;5.40;;
40433;SDS011;26146;51.114;5.654;2022-07-29T05:26:43;10.63;;;5.60;;
40433;SDS011;26146;51.114;5.654;2022-07-29T05:30:44;11.50;;;5.63;;
40433;SDS011;26146;51.114;5.654;2022-07-29T05:34:45;10.15;;;5.00;;
40433;SDS011;26146;51.114;5.654;2022-07-29T05:38:46;11.18;;;5.07;;
40433;SDS011;26146;51.114;5.654;2022-07-29T05:42:47;12.20;;;5.30;;
40433;SDS011;26146;51.114;5.654;2022-07-29T05:46:48;11.50;;;5.47;;
40433;SDS011;26146;51.114;5.654;2022-07-29T05:50:49;10.23;;;5.28;;
40433;SDS011;26146;51.114;5.654;2022-07-29T05:54:50;11.30;;;5.10;;
40433;SDS011;26146;51.114;5.654;2022-07-29T05:58:51;12.40;;;5.38;;
40433;SDS011;26146;51.114;5.654;2022-07-29T06:02:52;12.48;;;5.57;;
40433;SDS011;26146;51.114;5.654;2022-07-29T06:06:53;9.30;;;5.35;;
40433;SDS011;26146;51.114;5.654;2022-07-29T06:10:55;10.82;;;5.43;;
40433;SDS011;26146;51.114;5.654;2022-07-29T06:14:56;9.82;;;5.35;;
40433;SDS011;26146;51.114;5.654;2022-07-29T06:18:57;10.20;;;5.47;;
40433;SDS011;26146;51.114;5.654;2022-07-29T06:22:58;12.15;;;5.50;;
40433;SDS011;26146;51.114;5.654;2022-07-29T06:26:59;9.85;;;5.07;;
40433;SDS011;26146;51.114;5.654;2022-07-29T06:31:00;9.93;;;4.88;;
40433;SDS011;26146;51.114;5.654;2022-07-29T06:35:02;11.32;;;4.78;;
40433;SDS011;26146;51.114;5.654;2022-07-29T06:39:06;8.80;;;4.35;;
40433;SDS011;26146;51.114;5.654;2022-07-29T06:43:08;11.07;;;4.72;;
40433;SDS011;26146;51.114;5.654;2022-07-29T06:47:08;9.40;;;4.53;;
40433;SDS011;26146;51.114;5.654;2022-07-29T06:51:10;10.18;;;4.30;;
40433;SDS011;26146;51.114;5.654;2022-07-29T06:55:11;10.30;;;4.97;;
40433;SDS011;26146;51.114;5.654;2022-07-29T06:59:12;9.63;;;4.63;;
40433;SDS011;26146;51.114;5.654;2022-07-29T07:03:14;10.00;;;4.45;;
40433;SDS011;26146;51.114;5.654;2022-07-29T07:07:16;9.32;;;4.15;;
40433;SDS011;26146;51.114;5.654;2022-07-29T07:11:17;8.95;;;4.40;;
40433;SDS011;26146;51.114;5.654;2022-07-29T07:15:18;8.52;;;4.43;;
40433;SDS011;26146;51.114;5.654;2022-07-29T07:19:22;9.93;;;4.30;;
40433;SDS011;26146;51.114;5.654;2022-07-29T07:23:23;10.68;;;4.40;;
40433;SDS011;26146;51.114;5.654;2022-07-29T07:27:24;7.93;;;3.97;;
40433;SDS011;26146;51.114;5.654;2022-07-29T07:31:27;10.35;;;4.20;;
40433;SDS011;26146;51.114;5.654;2022-07-29T07:35:28;8.45;;;4.20;;
40433;SDS011;26146;51.114;5.654;2022-07-29T07:39:29;9.18;;;4.13;;
40433;SDS011;26146;51.114;5.654;2022-07-29T07:43:30;9.27;;;4.20;;
40433;SDS011;26146;51.114;5.654;2022-07-29T07:47:32;8.73;;;4.57;;
40433;SDS011;26146;51.114;5.654;2022-07-29T07:51:32;11.05;;;4.07;;
40433;SDS011;26146;51.114;5.654;2022-07-29T07:55:40;11.02;;;5.20;;
40433;SDS011;26146;51.114;5.654;2022-07-29T07:59:42;9.25;;;5.25;;
40433;SDS011;26146;51.114;5.654;2022-07-29T08:03:45;9.55;;;4.63;;
40433;SDS011;26146;51.114;5.654;2022-07-29T08:07:46;9.40;;;5.03;;
40433;SDS011;26146;51.114;5.654;2022-07-29T08:11:47;8.90;;;4.65;;
40433;SDS011;26146;51.114;5.654;2022-07-29T08:15:48;10.07;;;4.25;;
40433;SDS011;26146;51.114;5.654;2022-07-29T08:20:00;10.38;;;4.85;;
40433;SDS011;26146;51.114;5.654;2022-07-29T08:24:01;9.35;;;4.68;;
40433;SDS011;26146;51.114;5.654;2022-07-29T08:28:21;10.48;;;4.78;;
40433;SDS011;26146;51.114;5.654;2022-07-29T08:32:24;11.57;;;5.25;;
40433;SDS011;26146;51.114;5.654;2022-07-29T08:36:25;9.52;;;4.90;;
40433;SDS011;26146;51.114;5.654;2022-07-29T08:40:27;11.45;;;4.60;;
40433;SDS011;26146;51.114;5.654;2022-07-29T08:44:31;11.63;;;4.82;;
40433;SDS011;26146;51.114;5.654;2022-07-29T08:52:38;10.38;;;5.00;;
40433;SDS011;26146;51.114;5.654;2022-07-29T08:56:40;8.75;;;4.35;;
40433;SDS011;26146;51.114;5.654;2022-07-29T09:00:46;9.30;;;4.85;;
40433;SDS011;26146;51.114;5.654;2022-07-29T09:04:51;9.20;;;4.78;;
40433;SDS011;26146;51.114;5.654;2022-07-29T09:08:53;8.93;;;4.70;;
40433;SDS011;26146;51.114;5.654;2022-07-29T09:12:58;10.27;;;4.47;;
40433;SDS011;26146;51.114;5.654;2022-07-29T09:16:59;9.18;;;4.60;;
40433;SDS011;26146;51.114;5.654;2022-07-29T09:21:00;9.05;;;4.65;;
40433;SDS011;26146;51.114;5.654;2022-07-29T09:25:34;8.90;;;4.15;;
40433;SDS011;26146;51.114;5.654;2022-07-29T09:29:37;9.68;;;4.50;;
40433;SDS011;26146;51.114;5.654;2022-07-29T09:33:38;9.43;;;4.03;;
40433;SDS011;26146;51.114;5.654;2022-07-29T09:37:43;9.77;;;3.97;;
40433;SDS011;26146;51.114;5.654;2022-07-29T09:41:51;7.70;;;4.53;;
40433;SDS011;26146;51.114;5.654;2022-07-29T09:45:54;7.50;;;3.70;;
40433;SDS011;26146;51.114;5.654;2022-07-29T09:49:56;8.45;;;3.67;;
40433;SDS011;26146;51.114;5.654;2022-07-29T09:53:59;7.93;;;2.92;;
40433;SDS011;26146;51.114;5.654;2022-07-29T09:58:16;8.25;;;3.40;;
40433;SDS011;26146;51.114;5.654;2022-07-29T10:02:20;6.43;;;3.22;;
40433;SDS011;26146;51.114;5.654;2022-07-29T10:06:21;6.57;;;3.10;;
40433;SDS011;26146;51.114;5.654;2022-07-29T10:10:27;9.57;;;3.20;;
40433;SDS011;26146;51.114;5.654;2022-07-29T10:14:31;9.23;;;3.60;;
40433;SDS011;26146;51.114;5.654;2022-07-29T10:18:43;7.35;;;3.22;;
40433;SDS011;26146;51.114;5.654;2022-07-29T10:22:47;8.15;;;3.65;;
40433;SDS011;26146;51.114;5.654;2022-07-29T10:26:49;10.32;;;3.92;;
40433;SDS011;26146;51.114;5.654;2022-07-29T10:30:52;8.48;;;3.90;;
40433;SDS011;26146;51.114;5.654;2022-07-29T10:48:05;9.27;;;4.32;;
40433;SDS011;26146;51.114;5.654;2022-07-29T10:52:07;8.82;;;3.72;;
40433;SDS011;26146;51.114;5.654;2022-07-29T10:56:25;10.05;;;3.90;;
40433;SDS011;26146;51.114;5.654;2022-07-29T11:00:31;8.50;;;3.78;;
40433;SDS011;26146;51.114;5.654;2022-07-29T11:08:45;8.00;;;3.10;;
40433;SDS011;26146;51.114;5.654;2022-07-29T11:13:05;7.22;;;2.92;;
40433;SDS011;26146;51.114;5.654;2022-07-29T11:17:06;7.10;;;2.88;;
40433;SDS011;26146;51.114;5.654;2022-07-29T11:21:09;6.55;;;2.60;;
40433;SDS011;26146;51.114;5.654;2022-07-29T11:25:38;8.63;;;2.72;;
40433;SDS011;26146;51.114;5.654;2022-07-29T11:29:49;9.02;;;3.20;;
40433;SDS011;26146;51.114;5.654;2022-07-29T11:33:52;7.40;;;2.90;;
40433;SDS011;26146;51.114;5.654;2022-07-29T11:46:46;6.70;;;2.10;;
40433;SDS011;26146;51.114;5.654;2022-07-29T11:50:51;6.93;;;2.50;;
40433;SDS011;26146;51.114;5.654;2022-07-29T11:54:53;6.60;;;2.22;;
40433;SDS011;26146;51.114;5.654;2022-07-29T11:59:02;5.55;;;2.10;;
40433;SDS011;26146;51.114;5.654;2022-07-29T12:03:09;7.78;;;2.35;;
40433;SDS011;26146;51.114;5.654;2022-07-29T12:07:14;8.77;;;3.20;;
40433;SDS011;26146;51.114;5.654;2022-07-29T12:11:19;8.77;;;2.53;;
40433;SDS011;26146;51.114;5.654;2022-07-29T12:15:21;5.53;;;2.20;;
40433;SDS011;26146;51.114;5.654;2022-07-29T12:19:24;6.55;;;2.13;;
40433;SDS011;26146;51.114;5.654;2022-07-29T12:23:25;8.18;;;2.70;;
40433;SDS011;26146;51.114;5.654;2022-07-29T12:27:26;7.60;;;2.80;;
40433;SDS011;26146;51.114;5.654;2022-07-29T12:31:32;8.70;;;2.97;;
40433;SDS011;26146;51.114;5.654;2022-07-29T12:35:34;6.88;;;2.88;;
40433;SDS011;26146;51.114;5.654;2022-07-29T12:39:35;6.95;;;2.50;;
40433;SDS011;26146;51.114;5.654;2022-07-29T12:43:36;6.38;;;2.75;;
40433;SDS011;26146;51.114;5.654;2022-07-29T12:47:58;8.07;;;3.17;;
40433;SDS011;26146;51.114;5.654;2022-07-29T12:51:58;9.95;;;3.10;;
40433;SDS011;26146;51.114;5.654;2022-07-29T12:55:59;7.05;;;2.55;;
40433;SDS011;26146;51.114;5.654;2022-07-29T13:00:08;6.97;;;2.75;;
40433;SDS011;26146;51.114;5.654;2022-07-29T13:08:23;7.20;;;2.30;;
40433;SDS011;26146;51.114;5.654;2022-07-29T13:12:25;5.43;;;1.60;;
40433;SDS011;26146;51.114;5.654;2022-07-29T13:16:26;8.60;;;2.30;;
40433;SDS011;26146;51.114;5.654;2022-07-29T13:20:28;9.07;;;2.20;;
40433;SDS011;26146;51.114;5.654;2022-07-29T13:24:30;8.80;;;2.38;;
40433;SDS011;26146;51.114;5.654;2022-07-29T13:28:31;5.95;;;2.10;;
40433;SDS011;26146;51.114;5.654;2022-07-29T13:32:32;7.00;;;2.00;;
40433;SDS011;26146;51.114;5.654;2022-07-29T13:36:39;6.15;;;1.60;;
40433;SDS011;26146;51.114;5.654;2022-07-29T13:40:40;6.18;;;1.90;;
40433;SDS011;26146;51.114;5.654;2022-07-29T13:44:43;7.63;;;1.50;;
40433;SDS011;26146;51.114;5.654;2022-07-29T13:48:44;4.65;;;1.27;;
40433;SDS011;26146;51.114;5.654;2022-07-29T13:52:47;7.50;;;1.40;;
40433;SDS011;26146;51.114;5.654;2022-07-29T13:56:51;6.50;;;1.50;;
40433;SDS011;26146;51.114;5.654;2022-07-29T14:00:55;6.40;;;1.75;;
40433;SDS011;26146;51.114;5.654;2022-07-29T14:04:57;5.88;;;1.60;;
40433;SDS011;26146;51.114;5.654;2022-07-29T14:08:58;6.10;;;1.40;;
40433;SDS011;26146;51.114;5.654;2022-07-29T14:12:59;5.18;;;1.33;;
40433;SDS011;26146;51.114;5.654;2022-07-29T14:17:02;5.75;;;1.45;;
40433;SDS011;26146;51.114;5.654;2022-07-29T14:21:04;6.28;;;1.40;;
40433;SDS011;26146;51.114;5.654;2022-07-29T14:25:05;6.43;;;1.58;;
40433;SDS011;26146;51.114;5.654;2022-07-29T14:29:08;5.03;;;1.10;;
40433;SDS011;26146;51.114;5.654;2022-07-29T14:33:09;5.50;;;1.33;;
40433;SDS011;26146;51.114;5.654;2022-07-29T14:37:10;7.85;;;1.33;;
40433;SDS011;26146;51.114;5.654;2022-07-29T14:41:11;5.68;;;1.30;;
40433;SDS011;26146;51.114;5.654;2022-07-29T14:45:12;6.28;;;1.40;;
40433;SDS011;26146;51.114;5.654;2022-07-29T14:49:16;7.43;;;1.30;;
40433;SDS011;26146;51.114;5.654;2022-07-29T14:53:17;5.40;;;1.20;;
40433;SDS011;26146;51.114;5.654;2022-07-29T14:57:18;4.88;;;1.20;;
40433;SDS011;26146;51.114;5.654;2022-07-29T15:01:22;5.15;;;1.10;;
40433;SDS011;26146;51.114;5.654;2022-07-29T15:05:24;4.80;;;1.10;;
40433;SDS011;26146;51.114;5.654;2022-07-29T15:09:25;7.00;;;1.48;;
40433;SDS011;26146;51.114;5.654;2022-07-29T15:13:26;5.45;;;1.17;;
40433;SDS011;26146;51.114;5.654;2022-07-29T15:17:30;4.88;;;1.30;;
40433;SDS011;26146;51.114;5.654;2022-07-29T15:21:31;4.68;;;1.13;;
40433;SDS011;26146;51.114;5.654;2022-07-29T15:25:32;5.07;;;1.00;;
40433;SDS011;26146;51.114;5.654;2022-07-29T15:33:38;5.72;;;1.30;;
40433;SDS011;26146;51.114;5.654;2022-07-29T15:37:42;4.90;;;1.30;;
40433;SDS011;26146;51.114;5.654;2022-07-29T15:41:43;5.60;;;1.30;;
40433;SDS011;26146;51.114;5.654;2022-07-29T15:45:46;7.13;;;1.42;;
40433;SDS011;26146;51.114;5.654;2022-07-29T15:50:05;7.30;;;2.08;;
40433;SDS011;26146;51.114;5.654;2022-07-29T15:54:13;5.75;;;1.35;;
40433;SDS011;26146;51.114;5.654;2022-07-29T15:58:16;8.88;;;2.30;;
40433;SDS011;26146;51.114;5.654;2022-07-29T16:02:18;6.35;;;1.23;;
40433;SDS011;26146;51.114;5.654;2022-07-29T16:06:19;7.22;;;1.38;;
40433;SDS011;26146;51.114;5.654;2022-07-29T16:10:20;6.22;;;1.40;;
40433;SDS011;26146;51.114;5.654;2022-07-29T16:14:21;5.88;;;1.20;;
40433;SDS011;26146;51.114;5.654;2022-07-29T16:18:22;6.00;;;1.20;;
40433;SDS011;26146;51.114;5.654;2022-07-29T16:22:22;6.03;;;1.40;;
40433;SDS011;26146;51.114;5.654;2022-07-29T16:26:23;5.82;;;1.50;;
40433;SDS011;26146;51.114;5.654;2022-07-29T16:30:24;5.20;;;1.30;;
40433;SDS011;26146;51.114;5.654;2022-07-29T16:34:25;5.63;;;1.50;;
40433;SDS011;26146;51.114;5.654;2022-07-29T16:38:26;6.00;;;1.30;;
40433;SDS011;26146;51.114;5.654;2022-07-29T16:42:27;6.63;;;1.30;;
40433;SDS011;26146;51.114;5.654;2022-07-29T16:46:28;4.90;;;1.30;;
40433;SDS011;26146;51.114;5.654;2022-07-29T16:50:29;5.57;;;1.30;;
40433;SDS011;26146;51.114;5.654;2022-07-29T16:54:31;6.25;;;1.45;;
40433;SDS011;26146;51.114;5.654;2022-07-29T16:58:34;7.90;;;1.60;;
40433;SDS011;26146;51.114;5.654;2022-07-29T17:02:35;6.60;;;1.50;;
40433;SDS011;26146;51.114;5.654;2022-07-29T17:06:38;6.38;;;1.40;;
40433;SDS011;26146;51.114;5.654;2022-07-29T17:10:40;6.22;;;1.38;;
40433;SDS011;26146;51.114;5.654;2022-07-29T17:14:41;6.93;;;1.40;;
40433;SDS011;26146;51.114;5.654;2022-07-29T17:18:42;5.57;;;1.35;;
40433;SDS011;26146;51.114;5.654;2022-07-29T17:22:42;9.55;;;1.50;;
40433;SDS011;26146;51.114;5.654;2022-07-29T17:26:43;5.03;;;1.42;;
40433;SDS011;26146;51.114;5.654;2022-07-29T17:30:44;10.05;;;1.50;;
40433;SDS011;26146;51.114;5.654;2022-07-29T17:34:45;6.57;;;1.50;;
40433;SDS011;26146;51.114;5.654;2022-07-29T17:38:46;7.00;;;1.60;;
40433;SDS011;26146;51.114;5.654;2022-07-29T17:42:47;5.65;;;1.30;;
40433;SDS011;26146;51.114;5.654;2022-07-29T17:46:49;6.18;;;1.65;;
40433;SDS011;26146;51.114;5.654;2022-07-29T17:50:50;5.25;;;1.42;;
40433;SDS011;26146;51.114;5.654;2022-07-29T17:54:51;5.72;;;1.40;;
40433;SDS011;26146;51.114;5.654;2022-07-29T17:58:52;5.20;;;1.40;;
40433;SDS011;26146;51.114;5.654;2022-07-29T18:02:53;6.47;;;1.40;;
40433;SDS011;26146;51.114;5.654;2022-07-29T18:06:54;6.35;;;1.40;;
40433;SDS011;26146;51.114;5.654;2022-07-29T18:10:55;6.03;;;1.20;;
40433;SDS011;26146;51.114;5.654;2022-07-29T18:14:56;5.43;;;1.25;;
40433;SDS011;26146;51.114;5.654;2022-07-29T18:18:57;6.57;;;1.30;;
40433;SDS011;26146;51.114;5.654;2022-07-29T18:22:58;6.70;;;1.70;;
40433;SDS011;26146;51.114;5.654;2022-07-29T18:26:59;5.85;;;1.50;;
40433;SDS011;26146;51.114;5.654;2022-07-29T18:31:00;6.28;;;1.73;;
40433;SDS011;26146;51.114;5.654;2022-07-29T18:35:01;5.80;;;1.40;;
40433;SDS011;26146;51.114;5.654;2022-07-29T18:39:04;6.10;;;1.70;;
40433;SDS011;26146;51.114;5.654;2022-07-29T18:43:05;5.85;;;1.48;;
40433;SDS011;26146;51.114;5.654;2022-07-29T18:47:09;5.40;;;1.52;;
40433;SDS011;26146;51.114;5.654;2022-07-29T18:51:10;5.88;;;1.55;;
40433;SDS011;26146;51.114;5.654;2022-07-29T18:55:33;5.80;;;1.63;;
40433;SDS011;26146;51.114;5.654;2022-07-29T18:59:36;8.13;;;1.90;;
40433;SDS011;26146;51.114;5.654;2022-07-29T19:03:37;6.43;;;2.10;;
40433;SDS011;26146;51.114;5.654;2022-07-29T19:07:40;5.50;;;1.80;;
40433;SDS011;26146;51.114;5.654;2022-07-29T19:11:41;6.07;;;2.00;;
40433;SDS011;26146;51.114;5.654;2022-07-29T19:15:44;8.52;;;1.98;;
40433;SDS011;26146;51.114;5.654;2022-07-29T19:19:45;8.88;;;2.38;;
40433;SDS011;26146;51.114;5.654;2022-07-29T19:23:46;7.90;;;2.40;;
40433;SDS011;26146;51.114;5.654;2022-07-29T19:27:48;6.07;;;2.53;;
40433;SDS011;26146;51.114;5.654;2022-07-29T19:31:49;8.05;;;2.28;;
40433;SDS011;26146;51.114;5.654;2022-07-29T19:35:52;7.18;;;2.05;;
40433;SDS011;26146;51.114;5.654;2022-07-29T19:39:53;7.35;;;1.90;;
40433;SDS011;26146;51.114;5.654;2022-07-29T19:43:54;8.88;;;2.30;;
40433;SDS011;26146;51.114;5.654;2022-07-29T19:47:55;7.53;;;2.80;;
40433;SDS011;26146;51.114;5.654;2022-07-29T19:51:57;9.20;;;2.70;;
40433;SDS011;26146;51.114;5.654;2022-07-29T19:56:00;7.25;;;2.28;;
40433;SDS011;26146;51.114;5.654;2022-07-29T20:00:02;6.40;;;2.40;;
40433;SDS011;26146;51.114;5.654;2022-07-29T20:04:04;8.40;;;2.60;;
40433;SDS011;26146;51.114;5.654;2022-07-29T20:08:05;6.43;;;2.30;;
40433;SDS011;26146;51.114;5.654;2022-07-29T20:12:08;7.97;;;2.50;;
40433;SDS011;26146;51.114;5.654;2022-07-29T20:16:10;7.40;;;2.63;;
40433;SDS011;26146;51.114;5.654;2022-07-29T20:20:11;7.88;;;2.80;;
40433;SDS011;26146;51.114;5.654;2022-07-29T20:24:12;6.68;;;2.50;;
40433;SDS011;26146;51.114;5.654;2022-07-29T20:28:13;7.65;;;2.50;;
40433;SDS011;26146;51.114;5.654;2022-07-29T20:32:14;8.98;;;2.80;;
40433;SDS011;26146;51.114;5.654;2022-07-29T20:36:15;7.80;;;2.72;;
40433;SDS011;26146;51.114;5.654;2022-07-29T20:40:16;7.28;;;3.08;;
40433;SDS011;26146;51.114;5.654;2022-07-29T20:44:18;9.02;;;2.80;;
40433;SDS011;26146;51.114;5.654;2022-07-29T20:48:19;6.40;;;2.47;;
40433;SDS011;26146;51.114;5.654;2022-07-29T20:52:19;8.52;;;2.40;;
40433;SDS011;26146;51.114;5.654;2022-07-29T20:56:22;8.35;;;2.53;;
40433;SDS011;26146;51.114;5.654;2022-07-29T21:00:23;8.45;;;2.75;;
40433;SDS011;26146;51.114;5.654;2022-07-29T21:04:24;8.02;;;2.60;;
40433;SDS011;26146;51.114;5.654;2022-07-29T21:08:26;7.03;;;2.35;;
40433;SDS011;26146;51.114;5.654;2022-07-29T21:12:29;8.35;;;2.55;;
40433;SDS011;26146;51.114;5.654;2022-07-29T21:16:30;8.60;;;2.53;;
40433;SDS011;26146;51.114;5.654;2022-07-29T21:20:33;6.95;;;2.50;;
40433;SDS011;26146;51.114;5.654;2022-07-29T21:24:34;8.30;;;2.30;;
40433;SDS011;26146;51.114;5.654;2022-07-29T21:28:35;7.88;;;2.47;;
40433;SDS011;26146;51.114;5.654;2022-07-29T21:32:39;8.77;;;2.93;;
40433;SDS011;26146;51.114;5.654;2022-07-29T21:36:40;9.23;;;2.53;;
40433;SDS011;26146;51.114;5.654;2022-07-29T21:40:42;8.15;;;2.60;;
40433;SDS011;26146;51.114;5.654;2022-07-29T21:44:43;8.20;;;2.17;;
40433;SDS011;26146;51.114;5.654;2022-07-29T21:48:47;7.60;;;2.33;;
40433;SDS011;26146;51.114;5.654;2022-07-29T21:52:47;7.75;;;2.40;;
40433;SDS011;26146;51.114;5.654;2022-07-29T21:56:48;8.05;;;2.63;;
40433;SDS011;26146;51.114;5.654;2022-07-29T22:00:49;10.25;;;2.75;;
40433;SDS011;26146;51.114;5.654;2022-07-29T22:04:50;7.80;;;2.70;;
40433;SDS011;26146;51.114;5.654;2022-07-29T22:08:51;9.25;;;2.92;;
40433;SDS011;26146;51.114;5.654;2022-07-29T22:12:55;7.35;;;2.90;;
40433;SDS011;26146;51.114;5.654;2022-07-29T22:16:58;8.63;;;2.78;;
40433;SDS011;26146;51.114;5.654;2022-07-29T22:20:59;8.55;;;2.70;;
40433;SDS011;26146;51.114;5.654;2022-07-29T22:25:02;8.13;;;2.92;;
40433;SDS011;26146;51.114;5.654;2022-07-29T22:29:07;8.05;;;3.03;;
40433;SDS011;26146;51.114;5.654;2022-07-29T22:33:11;8.07;;;2.95;;
40433;SDS011;26146;51.114;5.654;2022-07-29T22:37:11;8.43;;;3.10;;
40433;SDS011;26146;51.114;5.654;2022-07-29T22:41:12;8.32;;;2.97;;
40433;SDS011;26146;51.114;5.654;2022-07-29T22:45:13;7.30;;;2.90;;
40433;SDS011;26146;51.114;5.654;2022-07-29T22:49:14;9.75;;;3.20;;
40433;SDS011;26146;51.114;5.654;2022-07-29T22:53:15;6.95;;;2.90;;
40433;SDS011;26146;51.114;5.654;2022-07-29T22:57:16;8.32;;;3.00;;
40433;SDS011;26146;51.114;5.654;2022-07-29T23:01:17;8.38;;;2.78;;
40433;SDS011;26146;51.114;5.654;2022-07-29T23:05:18;7.45;;;2.92;;
40433;SDS011;26146;51.114;5.654;2022-07-29T23:09:19;7.75;;;2.95;;
40433;SDS011;26146;51.114;5.654;2022-07-29T23:13:20;10.82;;;2.90;;
40433;SDS011;26146;51.114;5.654;2022-07-29T23:17:21;7.63;;;2.92;;
40433;SDS011;26146;51.114;5.654;2022-07-29T23:21:22;7.10;;;2.72;;
40433;SDS011;26146;51.114;5.654;2022-07-29T23:25:23;11.52;;;3.03;;
40433;SDS011;26146;51.114;5.654;2022-07-29T23:29:24;8.07;;;3.15;;
40433;SDS011;26146;51.114;5.654;2022-07-29T23:33:25;7.15;;;2.97;;
40433;SDS011;26146;51.114;5.654;2022-07-29T23:37:26;8.63;;;3.10;;
40433;SDS011;26146;51.114;5.654;2022-07-29T23:41:28;7.57;;;2.92;;
40433;SDS011;26146;51.114;5.654;2022-07-29T23:45:30;10.93;;;2.90;;
40433;SDS011;26146;51.114;5.654;2022-07-29T23:49:31;7.47;;;3.17;;
40433;SDS011;26146;51.114;5.654;2022-07-29T23:53:35;9.48;;;3.20;;
40433;SDS011;26146;51.114;5.654;2022-07-29T23:57:38;10.77;;;3.63;;
